createdAt,value
2018-12-31T00:01:11.092Z,13.47
2018-12-31T00:03:39.528Z,17.40
2018-12-31T00:06:07.963Z,13.73
2018-12-31T00:08:36.413Z,11.87
2018-12-31T00:11:04.879Z,16.30
2018-12-31T00:13:33.370Z,14.80
2018-12-31T00:16:01.818Z,10.67
2018-12-31T00:18:30.250Z,11.70
2018-12-31T00:20:58.711Z,8.00
2018-12-31T00:23:27.157Z,15.67
2018-12-31T00:25:55.615Z,12.27
2018-12-31T00:28:24.063Z,15.80
2018-12-31T00:30:52.508Z,14.17
2018-12-31T00:33:20.968Z,13.10
2018-12-31T00:35:49.488Z,11.33
2018-12-31T00:38:17.927Z,11.13
2018-12-31T00:40:46.386Z,14.13
2018-12-31T00:43:14.805Z,13.00
2018-12-31T00:45:43.252Z,15.00
2018-12-31T00:48:11.690Z,10.93
2018-12-31T00:50:40.155Z,12.67
2018-12-31T00:53:08.594Z,18.43
2018-12-31T00:55:37.046Z,16.83
2018-12-31T00:58:05.489Z,13.53
2018-12-31T01:00:33.930Z,11.10
2018-12-31T01:03:02.361Z,11.60
2018-12-31T01:05:30.813Z,17.80
2018-12-31T01:07:59.238Z,11.10
2018-12-31T01:10:27.686Z,14.23
2018-12-31T01:12:56.122Z,10.23
2018-12-31T01:15:24.581Z,9.97
2018-12-31T01:17:53.004Z,9.70
2018-12-31T01:20:21.752Z,16.63
2018-12-31T01:22:50.198Z,12.73
2018-12-31T01:25:18.627Z,19.77
2018-12-31T01:27:47.087Z,16.07
2018-12-31T01:30:15.522Z,13.57
2018-12-31T01:32:43.965Z,16.87
2018-12-31T01:35:12.461Z,12.90
2018-12-31T01:37:40.930Z,16.33
2018-12-31T01:40:09.428Z,17.00
2018-12-31T01:42:37.875Z,14.87
2018-12-31T01:45:06.311Z,14.50
2018-12-31T01:47:34.760Z,13.80
2018-12-31T01:50:03.192Z,11.27
2018-12-31T01:52:31.651Z,14.53
2018-12-31T01:55:00.093Z,11.60
2018-12-31T01:57:28.608Z,13.03
2018-12-31T01:59:57.044Z,17.23
2018-12-31T02:02:25.501Z,14.43
2018-12-31T02:04:53.932Z,13.93
2018-12-31T02:07:22.387Z,14.63
2018-12-31T02:09:50.834Z,12.30
2018-12-31T02:12:19.281Z,9.30
2018-12-31T02:14:47.799Z,12.10
2018-12-31T02:17:16.252Z,16.70
2018-12-31T02:19:44.688Z,12.47
2018-12-31T02:22:13.149Z,12.83
2018-12-31T02:24:41.592Z,13.17
2018-12-31T02:27:10.041Z,15.43
2018-12-31T02:29:38.476Z,10.73
2018-12-31T02:32:06.926Z,11.83
2018-12-31T02:34:35.373Z,15.00
2018-12-31T02:37:03.826Z,15.63
2018-12-31T02:39:32.254Z,10.53
2018-12-31T02:42:00.716Z,9.67
2018-12-31T02:44:29.152Z,21.63
2018-12-31T02:46:57.592Z,18.37
2018-12-31T02:49:26.054Z,14.13
2018-12-31T02:51:54.494Z,17.23
2018-12-31T02:54:22.930Z,8.03
2018-12-31T02:56:51.379Z,10.10
2018-12-31T02:59:19.895Z,12.73
2018-12-31T03:01:48.336Z,21.53
2018-12-31T03:04:16.859Z,18.20
2018-12-31T03:06:45.299Z,14.13
2018-12-31T03:09:13.746Z,21.93
2018-12-31T03:11:42.184Z,21.97
2018-12-31T03:14:10.625Z,18.73
2018-12-31T03:16:39.080Z,19.27
2018-12-31T03:19:07.531Z,12.80
2018-12-31T03:21:35.973Z,15.77
2018-12-31T03:24:04.436Z,17.83
2018-12-31T03:26:32.934Z,17.23
2018-12-31T03:29:01.397Z,22.63
2018-12-31T03:31:29.844Z,15.30
2018-12-31T03:33:58.295Z,23.57
2018-12-31T03:36:26.726Z,21.30
2018-12-31T03:38:55.217Z,16.33
2018-12-31T03:41:23.651Z,14.20
2018-12-31T03:43:52.087Z,15.07
2018-12-31T03:46:20.544Z,17.27
2018-12-31T03:48:48.968Z,20.23
2018-12-31T03:51:17.432Z,14.43
2018-12-31T03:53:45.877Z,20.40
2018-12-31T03:56:14.322Z,19.13
2018-12-31T03:58:42.764Z,18.73
2018-12-31T04:01:11.218Z,17.73
2018-12-31T04:03:39.791Z,19.30
2018-12-31T04:06:08.263Z,21.23
2018-12-31T04:08:36.708Z,14.17
2018-12-31T04:11:05.164Z,24.47
2018-12-31T04:13:33.636Z,19.57
2018-12-31T04:16:02.139Z,19.20
2018-12-31T04:18:30.573Z,14.93
2018-12-31T04:20:59.026Z,15.87
2018-12-31T04:23:28.742Z,15.47
2018-12-31T04:25:57.296Z,20.13
2018-12-31T04:28:25.740Z,19.27
2018-12-31T04:30:54.255Z,21.20
2018-12-31T04:33:22.681Z,15.70
2018-12-31T04:35:51.142Z,24.07
2018-12-31T04:38:19.570Z,20.30
2018-12-31T04:40:48.021Z,14.53
2018-12-31T04:43:16.454Z,16.93
2018-12-31T04:45:44.959Z,19.87
2018-12-31T04:48:13.465Z,16.80
2018-12-31T04:50:41.895Z,16.53
2018-12-31T04:53:10.356Z,20.17
2018-12-31T04:55:44.373Z,15.80
2018-12-31T04:58:08.967Z,19.93
2018-12-31T05:00:37.414Z,16.83
2018-12-31T05:03:05.894Z,16.83
2018-12-31T05:05:34.330Z,17.43
2018-12-31T05:08:02.800Z,18.53
2018-12-31T05:10:31.242Z,14.43
2018-12-31T05:12:59.705Z,17.63
2018-12-31T05:15:28.134Z,15.67
2018-12-31T05:17:56.584Z,14.80
2018-12-31T05:20:25.022Z,15.47
2018-12-31T05:22:53.476Z,14.97
2018-12-31T05:25:21.918Z,17.23
2018-12-31T05:27:50.376Z,13.77
2018-12-31T05:30:18.802Z,14.63
2018-12-31T05:32:47.262Z,15.93
2018-12-31T05:35:15.698Z,15.60
2018-12-31T05:37:44.147Z,17.30
2018-12-31T05:40:12.585Z,19.27
2018-12-31T05:42:41.034Z,23.27
2018-12-31T05:45:09.473Z,19.40
2018-12-31T05:47:37.923Z,18.13
2018-12-31T05:50:06.355Z,20.90
2018-12-31T05:52:34.826Z,18.33
2018-12-31T05:55:03.351Z,20.57
2018-12-31T05:57:31.786Z,20.20
2018-12-31T06:00:00.230Z,16.00
2018-12-31T06:02:28.668Z,14.57
2018-12-31T06:04:57.126Z,23.47
2018-12-31T06:07:25.564Z,16.90
2018-12-31T06:09:54.013Z,15.87
2018-12-31T06:12:22.450Z,18.27
2018-12-31T06:14:50.923Z,15.87
2018-12-31T06:17:19.369Z,17.07
2018-12-31T06:19:47.826Z,17.33
2018-12-31T06:22:16.257Z,18.77
2018-12-31T06:24:44.715Z,16.20
2018-12-31T06:27:13.143Z,19.33
2018-12-31T06:29:41.594Z,20.00
2018-12-31T06:32:10.035Z,17.63
2018-12-31T06:34:38.494Z,19.83
2018-12-31T06:37:06.929Z,22.17
2018-12-31T06:39:35.391Z,20.50
2018-12-31T06:42:03.817Z,22.43
2018-12-31T06:44:32.286Z,20.73
2018-12-31T06:47:00.782Z,20.00
2018-12-31T06:49:29.218Z,18.90
2018-12-31T06:51:57.668Z,22.57
2018-12-31T06:54:26.121Z,20.30
2018-12-31T06:56:54.631Z,19.27
2018-12-31T06:59:23.079Z,22.27
2018-12-31T07:01:51.529Z,21.83
2018-12-31T07:04:19.966Z,20.50
2018-12-31T07:06:48.425Z,23.27
2018-12-31T07:09:16.902Z,21.37
2018-12-31T07:11:45.414Z,23.47
2018-12-31T07:14:13.855Z,23.03
2018-12-31T07:16:42.310Z,25.30
2018-12-31T07:19:10.746Z,24.23
2018-12-31T07:21:39.206Z,18.63
2018-12-31T07:24:07.715Z,29.97
2018-12-31T07:26:36.160Z,25.40
2018-12-31T07:29:04.609Z,31.50
2018-12-31T07:31:33.068Z,36.17
2018-12-31T07:34:01.502Z,31.63
2018-12-31T07:36:29.984Z,26.77
2018-12-31T07:38:58.477Z,27.67
2018-12-31T07:41:26.926Z,26.13
2018-12-31T07:43:55.441Z,23.97
2018-12-31T07:46:23.886Z,36.20
2018-12-31T07:48:52.322Z,22.17
2018-12-31T07:51:20.782Z,29.23
2018-12-31T07:53:49.219Z,23.57
2018-12-31T07:56:17.697Z,32.33
2018-12-31T07:58:46.138Z,30.80
2018-12-31T08:01:14.579Z,27.00
2018-12-31T08:03:43.039Z,31.13
2018-12-31T08:06:11.484Z,32.30
2018-12-31T08:08:39.963Z,28.90
2018-12-31T08:11:08.479Z,28.27
2018-12-31T08:13:36.996Z,33.67
2018-12-31T08:16:05.422Z,33.50
2018-12-31T08:18:33.890Z,27.23
2018-12-31T08:21:02.355Z,29.83
2018-12-31T08:23:30.805Z,26.70
2018-12-31T08:25:59.239Z,24.83
2018-12-31T08:28:27.695Z,24.60
2018-12-31T08:30:56.126Z,28.87
2018-12-31T08:33:24.582Z,22.47
2018-12-31T08:35:53.032Z,25.60
2018-12-31T08:38:21.473Z,28.70
2018-12-31T08:40:49.918Z,23.00
2018-12-31T08:43:18.410Z,25.00
2018-12-31T08:45:46.862Z,25.93
2018-12-31T08:48:15.329Z,25.77
2018-12-31T08:50:43.776Z,26.97
2018-12-31T08:53:12.242Z,29.50
2018-12-31T08:55:40.686Z,26.63
2018-12-31T08:58:09.153Z,28.97
2018-12-31T09:00:37.577Z,22.77
2018-12-31T09:03:06.021Z,26.27
2018-12-31T09:05:34.496Z,22.50
2018-12-31T09:08:02.949Z,25.57
2018-12-31T09:10:31.409Z,20.57
2018-12-31T09:12:59.849Z,18.23
2018-12-31T09:15:28.314Z,23.73
2018-12-31T09:17:56.762Z,18.73
2018-12-31T09:20:25.209Z,20.23
2018-12-31T09:22:53.718Z,24.47
2018-12-31T09:25:22.174Z,18.57
2018-12-31T09:27:50.607Z,29.73
2018-12-31T09:30:19.045Z,21.47
2018-12-31T09:32:47.485Z,20.20
2018-12-31T09:35:15.944Z,20.57
2018-12-31T09:37:44.454Z,22.30
2018-12-31T09:40:12.901Z,25.83
2018-12-31T09:42:41.336Z,24.93
2018-12-31T09:45:09.792Z,24.90
2018-12-31T09:47:38.225Z,21.03
2018-12-31T09:50:06.686Z,23.37
2018-12-31T09:52:35.128Z,24.20
2018-12-31T09:55:03.853Z,22.63
2018-12-31T09:57:32.285Z,19.93
2018-12-31T10:00:00.737Z,20.43
2018-12-31T10:02:29.175Z,28.50
2018-12-31T10:04:57.641Z,24.47
2018-12-31T10:07:26.081Z,23.00
2018-12-31T10:09:54.530Z,25.10
2018-12-31T10:12:22.977Z,19.80
2018-12-31T10:14:51.475Z,24.00
2018-12-31T10:17:19.933Z,20.60
2018-12-31T10:19:48.378Z,16.90
2018-12-31T10:22:16.838Z,16.70
2018-12-31T10:24:45.270Z,19.23
2018-12-31T10:27:13.724Z,17.40
2018-12-31T10:29:42.169Z,17.20
2018-12-31T10:32:10.634Z,16.90
2018-12-31T10:34:39.071Z,19.20
2018-12-31T10:37:07.679Z,18.20
2018-12-31T10:39:36.110Z,22.23
2018-12-31T10:42:04.554Z,18.07
2018-12-31T10:44:33.013Z,14.10
2018-12-31T10:47:01.530Z,15.03
2018-12-31T10:49:29.979Z,14.53
2018-12-31T10:51:58.426Z,20.33
2018-12-31T10:54:26.909Z,16.90
2018-12-31T10:56:55.366Z,14.60
2018-12-31T10:59:23.808Z,16.47
2018-12-31T11:01:52.256Z,16.23
2018-12-31T11:04:20.755Z,16.77
2018-12-31T11:06:49.239Z,13.67
2018-12-31T11:09:17.668Z,15.07
2018-12-31T11:11:46.130Z,14.20
2018-12-31T11:14:15.323Z,14.27
2018-12-31T11:16:43.838Z,18.90
2018-12-31T11:19:12.303Z,14.53
2018-12-31T11:21:40.786Z,21.37
2018-12-31T11:24:09.206Z,12.80
2018-12-31T11:26:37.655Z,21.00
2018-12-31T11:29:06.095Z,15.30
2018-12-31T11:31:34.545Z,17.07
2018-12-31T11:34:03.006Z,13.97
2018-12-31T11:36:32.490Z,13.47
2018-12-31T11:39:01.078Z,17.00
2018-12-31T11:41:29.509Z,15.07
2018-12-31T11:43:57.975Z,19.00
2018-12-31T11:46:26.417Z,12.83
2018-12-31T11:48:54.863Z,12.27
2018-12-31T11:51:23.293Z,15.53
2018-12-31T11:53:51.753Z,15.67
2018-12-31T11:56:20.194Z,11.03
2018-12-31T11:58:48.658Z,16.43
2018-12-31T12:01:17.086Z,14.30
2018-12-31T12:03:45.555Z,14.33
2018-12-31T12:06:13.990Z,12.70
2018-12-31T12:08:42.446Z,18.87
2018-12-31T12:11:11.163Z,16.80
2018-12-31T12:13:39.634Z,16.43
2018-12-31T12:16:08.138Z,15.43
2018-12-31T12:18:36.610Z,15.93
2018-12-31T12:21:05.054Z,17.57
2018-12-31T12:23:33.500Z,14.97
2018-12-31T12:26:02.037Z,17.33
2018-12-31T12:28:30.496Z,15.40
2018-12-31T12:30:58.946Z,15.70
2018-12-31T12:33:27.402Z,19.87
2018-12-31T12:35:55.846Z,14.53
2018-12-31T12:38:24.434Z,15.30
2018-12-31T12:40:52.901Z,14.97
2018-12-31T12:43:21.746Z,12.63
2018-12-31T12:45:50.254Z,16.53
2018-12-31T12:48:19.084Z,12.60
2018-12-31T12:50:47.789Z,9.80
2018-12-31T12:53:16.222Z,11.13
2018-12-31T12:55:44.687Z,16.07
2018-12-31T12:58:13.123Z,12.30
2018-12-31T13:00:41.580Z,13.77
2018-12-31T13:03:10.173Z,14.07
2018-12-31T13:05:38.637Z,14.17
2018-12-31T13:08:07.080Z,11.50
2018-12-31T13:10:35.540Z,12.23
2018-12-31T13:13:04.059Z,15.17
2018-12-31T13:15:32.838Z,10.23
2018-12-31T13:18:01.427Z,10.83
2018-12-31T13:20:29.883Z,11.93
2018-12-31T13:22:58.415Z,13.67
2018-12-31T13:25:26.929Z,16.70
2018-12-31T13:27:55.745Z,17.13
2018-12-31T13:30:24.200Z,15.27
2018-12-31T13:32:52.658Z,14.77
2018-12-31T13:35:21.184Z,12.57
2018-12-31T13:37:49.622Z,11.90
2018-12-31T13:40:18.102Z,12.43
2018-12-31T13:42:46.599Z,10.30
2018-12-31T13:45:15.157Z,17.10
2018-12-31T13:47:43.653Z,15.87
2018-12-31T13:50:12.095Z,10.33
2018-12-31T13:52:40.584Z,10.23
2018-12-31T13:55:09.036Z,13.07
2018-12-31T13:57:37.488Z,14.80
2018-12-31T14:00:08.631Z,13.23
2018-12-31T14:02:37.150Z,9.13
2018-12-31T14:05:05.649Z,13.10
2018-12-31T14:07:34.110Z,9.13
2018-12-31T14:10:02.552Z,9.67
2018-12-31T14:12:31.070Z,9.20
2018-12-31T14:14:59.513Z,17.13
2018-12-31T14:17:27.964Z,11.93
2018-12-31T14:19:56.472Z,8.97
2018-12-31T14:22:24.921Z,10.40
2018-12-31T14:24:53.348Z,14.33
2018-12-31T14:27:21.870Z,10.63
2018-12-31T14:29:50.321Z,9.43
2018-12-31T14:32:18.769Z,11.60
2018-12-31T14:34:47.207Z,12.67
2018-12-31T14:37:15.729Z,10.27
2018-12-31T14:39:48.935Z,11.20
2018-12-31T14:42:17.374Z,16.70
2018-12-31T14:44:45.811Z,11.27
2018-12-31T14:47:18.225Z,14.87
2018-12-31T14:49:44.430Z,14.13
2018-12-31T14:52:12.897Z,13.70
2018-12-31T14:54:41.400Z,14.53
2018-12-31T14:57:09.921Z,19.97
2018-12-31T14:59:38.379Z,21.37
2018-12-31T15:02:06.837Z,21.87
2018-12-31T15:04:35.277Z,16.43
2018-12-31T15:07:03.783Z,19.20
2018-12-31T15:09:32.232Z,18.00
2018-12-31T15:12:00.681Z,20.17
2018-12-31T15:14:29.210Z,16.73
2018-12-31T15:16:57.662Z,17.83
2018-12-31T15:19:26.209Z,19.67
2018-12-31T15:21:54.909Z,16.57
2018-12-31T15:24:23.357Z,23.63
2018-12-31T15:26:51.803Z,20.63
2018-12-31T15:29:20.253Z,23.33
2018-12-31T15:31:48.706Z,27.90
2018-12-31T15:34:17.604Z,23.53
2018-12-31T15:36:46.054Z,24.47
2018-12-31T15:39:14.680Z,20.87
2018-12-31T15:41:43.119Z,22.70
2018-12-31T15:44:11.591Z,24.10
2018-12-31T15:46:40.032Z,21.97
2018-12-31T15:49:08.487Z,30.93
2018-12-31T15:51:36.930Z,28.03
2018-12-31T15:54:05.401Z,29.57
2018-12-31T15:56:33.923Z,25.73
2018-12-31T15:59:02.441Z,29.93
2018-12-31T16:01:30.873Z,31.60
2018-12-31T16:03:59.333Z,27.50
2018-12-31T16:06:27.772Z,32.70
2018-12-31T16:08:56.221Z,31.97
2018-12-31T16:11:24.658Z,25.80
2018-12-31T16:13:53.403Z,27.63
2018-12-31T16:16:21.859Z,27.83
2018-12-31T16:18:50.317Z,33.63
2018-12-31T16:21:18.798Z,27.27
2018-12-31T16:23:47.255Z,34.50
2018-12-31T16:26:16.090Z,47.87
2018-12-31T16:28:44.617Z,31.70
2018-12-31T16:31:13.139Z,33.87
2018-12-31T16:33:41.592Z,39.57
2018-12-31T16:36:10.160Z,53.07
2018-12-31T16:38:38.672Z,38.47
2018-12-31T16:41:07.220Z,32.23
2018-12-31T16:43:35.721Z,37.00
2018-12-31T16:46:04.178Z,35.60
2018-12-31T16:48:32.625Z,33.63
2018-12-31T16:51:01.161Z,33.87
2018-12-31T16:53:29.728Z,36.73
2018-12-31T16:55:58.249Z,34.17
2018-12-31T16:58:26.768Z,37.20
2018-12-31T17:00:55.222Z,39.10
2018-12-31T17:03:23.655Z,36.63
2018-12-31T17:05:52.419Z,36.50
2018-12-31T17:08:20.854Z,39.80
2018-12-31T17:10:49.321Z,37.40
2018-12-31T17:13:17.822Z,43.07
2018-12-31T17:15:46.299Z,36.83
2018-12-31T17:18:14.737Z,33.53
2018-12-31T17:20:43.265Z,41.60
2018-12-31T17:23:11.702Z,39.83
2018-12-31T17:25:40.155Z,42.17
2018-12-31T17:28:08.605Z,41.80
2018-12-31T17:30:37.119Z,43.73
2018-12-31T17:33:05.685Z,42.10
2018-12-31T17:35:34.209Z,43.13
2018-12-31T17:38:02.814Z,40.33
2018-12-31T17:40:31.257Z,39.03
2018-12-31T17:42:59.823Z,39.30
2018-12-31T17:45:28.652Z,47.20
2018-12-31T17:47:57.123Z,75.70
2018-12-31T17:50:25.566Z,51.40
2018-12-31T17:52:54.026Z,46.27
2018-12-31T17:55:22.479Z,46.17
2018-12-31T17:57:51.013Z,46.33
2018-12-31T18:00:19.454Z,43.30
2018-12-31T18:02:47.922Z,42.47
2018-12-31T18:05:16.364Z,44.33
2018-12-31T18:07:44.898Z,52.17
2018-12-31T18:10:13.345Z,53.67
2018-12-31T18:12:41.882Z,53.00
2018-12-31T18:15:10.342Z,51.90
2018-12-31T18:17:38.867Z,44.00
2018-12-31T18:20:08.732Z,43.67
2018-12-31T18:22:37.287Z,52.43
2018-12-31T18:25:05.841Z,53.17
2018-12-31T18:27:34.336Z,48.50
2018-12-31T18:30:02.944Z,57.50
2018-12-31T18:32:31.408Z,72.30
2018-12-31T18:34:59.925Z,57.63
2018-12-31T18:37:28.654Z,65.33
2018-12-31T18:39:57.964Z,176.57
2018-12-31T18:42:26.841Z,56.53
2018-12-31T18:44:55.306Z,72.17
2018-12-31T18:47:23.742Z,70.23
2018-12-31T18:49:52.490Z,70.30
2018-12-31T18:52:20.931Z,78.63
2018-12-31T18:54:49.389Z,60.90
2018-12-31T18:57:17.837Z,60.47
2018-12-31T18:59:46.294Z,55.53
2018-12-31T19:02:14.749Z,67.07
2018-12-31T19:04:43.212Z,68.37
2018-12-31T19:07:11.659Z,58.83
2018-12-31T19:09:40.180Z,52.93
2018-12-31T19:12:08.734Z,67.87
2018-12-31T19:14:37.259Z,79.67
2018-12-31T19:17:05.915Z,83.73
2018-12-31T19:19:34.381Z,62.90
2018-12-31T19:22:02.815Z,67.27
2018-12-31T19:24:31.276Z,71.60
2018-12-31T19:26:59.724Z,83.93
2018-12-31T19:29:28.565Z,79.40
2018-12-31T19:31:57.273Z,92.50
2018-12-31T19:34:25.860Z,67.80
2018-12-31T19:36:54.310Z,62.57
2018-12-31T19:39:22.796Z,80.63
2018-12-31T19:41:51.328Z,78.63
2018-12-31T19:44:19.866Z,111.80
2018-12-31T19:46:48.378Z,97.77
2018-12-31T19:49:16.858Z,126.83
2018-12-31T19:51:45.386Z,98.17
2018-12-31T19:54:13.829Z,83.10
2018-12-31T19:56:42.474Z,108.40
2018-12-31T19:59:10.982Z,105.90
2018-12-31T20:01:39.430Z,109.33
2018-12-31T20:04:07.954Z,98.60
2018-12-31T20:06:36.401Z,111.70
2018-12-31T20:09:06.196Z,112.43
2018-12-31T20:11:34.746Z,97.27
2018-12-31T20:14:03.259Z,156.03
2018-12-31T20:16:31.793Z,102.73
2018-12-31T20:19:00.235Z,124.17
2018-12-31T20:21:28.721Z,139.00
2018-12-31T20:23:57.181Z,122.53
2018-12-31T20:26:25.727Z,134.30
2018-12-31T20:28:54.316Z,99.50
2018-12-31T20:31:22.829Z,101.50
2018-12-31T20:33:51.342Z,115.00
2018-12-31T20:36:19.884Z,513.03
2018-12-31T20:38:48.386Z,468.07
2018-12-31T20:41:16.867Z,114.23
2018-12-31T20:43:45.399Z,187.80
2018-12-31T20:46:13.864Z,141.93
2018-12-31T20:48:42.385Z,1575.67
2018-12-31T20:51:11.223Z,131.63
2018-12-31T20:53:39.766Z,162.07
2018-12-31T20:56:08.279Z,149.70
2018-12-31T20:58:36.728Z,128.93
2018-12-31T21:01:05.172Z,150.07
2018-12-31T21:03:33.634Z,155.87
2018-12-31T21:06:02.096Z,147.33
2018-12-31T21:08:30.618Z,154.40
2018-12-31T21:10:59.067Z,153.97
2018-12-31T21:13:27.533Z,168.03
2018-12-31T21:15:55.988Z,176.33
2018-12-31T21:18:24.730Z,186.27
2018-12-31T21:20:53.172Z,183.73
2018-12-31T21:23:21.630Z,150.27
2018-12-31T21:25:50.067Z,168.33
2018-12-31T21:28:18.545Z,177.17
2018-12-31T21:30:46.995Z,187.07
2018-12-31T21:33:15.466Z,158.67
2018-12-31T21:35:44.003Z,283.10
2018-12-31T21:38:12.557Z,175.17
2018-12-31T21:40:41.182Z,194.93
2018-12-31T21:43:09.724Z,317.23
2018-12-31T21:45:38.447Z,152.73
2018-12-31T21:48:06.914Z,171.07
2018-12-31T21:50:35.373Z,121.57
2018-12-31T21:53:03.843Z,105.47
2018-12-31T21:55:32.276Z,101.43
2018-12-31T21:58:00.830Z,92.07
2018-12-31T22:00:29.262Z,90.17
2018-12-31T22:02:57.727Z,89.40
2018-12-31T22:05:26.272Z,87.37
2018-12-31T22:07:54.789Z,85.37
2018-12-31T22:10:23.259Z,86.47
2018-12-31T22:12:52.035Z,71.93
2018-12-31T22:15:20.553Z,74.73
2018-12-31T22:17:49.329Z,72.43
2018-12-31T22:20:17.835Z,89.93
2018-12-31T22:22:46.284Z,99.07
2018-12-31T22:25:14.738Z,102.83
2018-12-31T22:27:43.180Z,104.73
2018-12-31T22:30:11.636Z,95.87
2018-12-31T22:32:40.079Z,109.43
2018-12-31T22:35:08.530Z,76.80
2018-12-31T22:37:36.978Z,65.90
2018-12-31T22:40:05.446Z,70.23
2018-12-31T22:42:33.868Z,78.40
2018-12-31T22:45:02.334Z,79.37
2018-12-31T22:47:31.670Z,105.07
2018-12-31T22:50:00.223Z,87.13
2018-12-31T22:52:29.069Z,100.57
2018-12-31T22:54:57.530Z,97.50
2018-12-31T22:57:26.005Z,161.27
2018-12-31T22:59:54.465Z,130.80
2018-12-31T23:02:22.918Z,218.93
2018-12-31T23:04:51.669Z,368.17
2018-12-31T23:07:20.248Z,616.60
2018-12-31T23:09:48.735Z,347.10
2018-12-31T23:12:17.263Z,522.30
2018-12-31T23:14:45.775Z,892.63
2018-12-31T23:17:14.282Z,765.50
2018-12-31T23:19:42.755Z,597.23
2018-12-31T23:22:11.299Z,1095.47
2018-12-31T23:24:39.806Z,1488.97
2018-12-31T23:27:08.337Z,815.87
2018-12-31T23:29:36.930Z,600.67
2018-12-31T23:32:05.728Z,612.17
2018-12-31T23:34:34.164Z,518.37
2018-12-31T23:37:02.647Z,617.80
2018-12-31T23:39:31.174Z,643.17
2018-12-31T23:41:59.657Z,411.70
2018-12-31T23:44:28.465Z,269.23
2018-12-31T23:46:56.948Z,345.03
2018-12-31T23:49:25.476Z,325.00
2018-12-31T23:51:53.958Z,282.97
2018-12-31T23:54:24.493Z,233.27
2018-12-31T23:56:53.262Z,260.27
2018-12-31T23:59:21.727Z,259.57
